sensor_id;sensor_type;location;lat;lon;timestamp;pressure;altitude;pressure_sealevel;temperature;humidity
41830;BME280;38614;43.472;23.936;2023-04-08T00:02:09;100514.91;;;4.18;100.00
41830;BME280;38614;43.472;23.936;2023-04-08T00:04:57;100512.25;;;4.27;100.00
41830;BME280;38614;43.472;23.936;2023-04-08T00:07:45;100512.03;;;4.37;100.00
41830;BME280;38614;43.472;23.936;2023-04-08T00:10:33;100498.06;;;4.39;100.00
41830;BME280;38614;43.472;23.936;2023-04-08T00:13:20;100422.03;;;3.77;100.00
41830;BME280;38614;43.472;23.936;2023-04-08T00:16:08;100516.09;;;4.40;100.00
41830;BME280;38614;43.472;23.936;2023-04-08T00:18:56;100501.41;;;4.36;100.00
41830;BME280;38614;43.472;23.936;2023-04-08T00:21:44;100506.78;;;4.41;100.00
41830;BME280;38614;43.472;23.936;2023-04-08T00:24:31;100502.44;;;4.26;100.00
41830;BME280;38614;43.472;23.936;2023-04-08T00:27:19;100502.34;;;4.31;100.00
41830;BME280;38614;43.472;23.936;2023-04-08T00:30:07;100480.13;;;4.10;100.00
41830;BME280;38614;43.472;23.936;2023-04-08T00:32:57;100500.16;;;4.19;100.00
41830;BME280;38614;43.472;23.936;2023-04-08T00:35:44;100497.81;;;4.13;100.00
41830;BME280;38614;43.472;23.936;2023-04-08T00:38:32;100462.72;;;3.92;100.00
41830;BME280;38614;43.472;23.936;2023-04-08T00:41:20;100497.63;;;4.09;100.00
41830;BME280;38614;43.472;23.936;2023-04-08T00:44:08;100488.41;;;4.05;100.00
41830;BME280;38614;43.472;23.936;2023-04-08T00:46:56;100527.28;;;4.16;100.00
41830;BME280;38614;43.472;23.936;2023-04-08T00:49:44;100520.03;;;4.11;100.00
41830;BME280;38614;43.472;23.936;2023-04-08T00:52:31;100484.97;;;3.99;100.00
41830;BME280;38614;43.472;23.936;2023-04-08T00:55:20;100515.06;;;3.99;100.00
41830;BME280;38614;43.472;23.936;2023-04-08T00:58:08;100491.09;;;3.83;100.00
41830;BME280;38614;43.472;23.936;2023-04-08T01:01:15;100499.09;;;3.79;100.00
41830;BME280;38614;43.472;23.936;2023-04-08T01:04:16;100545.34;;;4.03;100.00
41830;BME280;38614;43.472;23.936;2023-04-08T01:07:19;100529.84;;;3.98;100.00
41830;BME280;38614;43.472;23.936;2023-04-08T01:10:16;100519.13;;;3.88;100.00
41830;BME280;38614;43.472;23.936;2023-04-08T01:13:07;100511.53;;;3.85;100.00
41830;BME280;38614;43.472;23.936;2023-04-08T01:15:56;100513.16;;;3.86;100.00
41830;BME280;38614;43.472;23.936;2023-04-08T01:18:45;100528.44;;;3.87;100.00
41830;BME280;38614;43.472;23.936;2023-04-08T01:21:36;100522.66;;;3.89;100.00
41830;BME280;38614;43.472;23.936;2023-04-08T01:24:30;100529.16;;;3.93;100.00
41830;BME280;38614;43.472;23.936;2023-04-08T01:27:20;100525.81;;;3.96;100.00
41830;BME280;38614;43.472;23.936;2023-04-08T01:30:08;100533.91;;;4.01;100.00
41830;BME280;38614;43.472;23.936;2023-04-08T01:32:58;100460.53;;;3.53;100.00
41830;BME280;38614;43.472;23.936;2023-04-08T01:35:48;100527.81;;;3.90;100.00
41830;BME280;38614;43.472;23.936;2023-04-08T01:38:38;100513.56;;;3.80;100.00
41830;BME280;38614;43.472;23.936;2023-04-08T01:41:28;100506.06;;;3.71;100.00
41830;BME280;38614;43.472;23.936;2023-04-08T01:44:17;100539.38;;;3.87;100.00
41830;BME280;38614;43.472;23.936;2023-04-08T01:47:05;100534.13;;;3.91;100.00
41830;BME280;38614;43.472;23.936;2023-04-08T01:49:54;100501.72;;;3.84;100.00
41830;BME280;38614;43.472;23.936;2023-04-08T01:52:43;100529.34;;;3.96;100.00
41830;BME280;38614;43.472;23.936;2023-04-08T01:55:33;100510.13;;;3.88;100.00
41830;BME280;38614;43.472;23.936;2023-04-08T01:58:23;100518.59;;;4.00;100.00
41830;BME280;38614;43.472;23.936;2023-04-08T02:01:17;100523.16;;;4.05;100.00
41830;BME280;38614;43.472;23.936;2023-04-08T02:04:09;100515.69;;;3.96;100.00
41830;BME280;38614;43.472;23.936;2023-04-08T02:06:57;100501.72;;;3.84;100.00
41830;BME280;38614;43.472;23.936;2023-04-08T02:09:45;100490.28;;;3.68;100.00
41830;BME280;38614;43.472;23.936;2023-04-08T02:12:33;100504.38;;;3.76;100.00
41830;BME280;38614;43.472;23.936;2023-04-08T02:15:21;100537.66;;;3.91;100.00
41830;BME280;38614;43.472;23.936;2023-04-08T02:18:15;100503.44;;;3.80;100.00
41830;BME280;38614;43.472;23.936;2023-04-08T02:21:10;100537.38;;;3.93;100.00
41830;BME280;38614;43.472;23.936;2023-04-08T02:24:03;100533.28;;;3.90;100.00
41830;BME280;38614;43.472;23.936;2023-04-08T02:26:52;100550.59;;;3.99;100.00
41830;BME280;38614;43.472;23.936;2023-04-08T02:29:43;100516.81;;;3.82;100.00
41830;BME280;38614;43.472;23.936;2023-04-08T02:32:33;100518.66;;;3.72;100.00
41830;BME280;38614;43.472;23.936;2023-04-08T02:35:22;100546.47;;;3.88;100.00
41830;BME280;38614;43.472;23.936;2023-04-08T02:38:11;100551.13;;;3.88;100.00
41830;BME280;38614;43.472;23.936;2023-04-08T02:40:59;100515.00;;;3.63;100.00
41830;BME280;38614;43.472;23.936;2023-04-08T02:43:48;100544.75;;;3.79;100.00
41830;BME280;38614;43.472;23.936;2023-04-08T02:46:36;100541.09;;;3.97;100.00
41830;BME280;38614;43.472;23.936;2023-04-08T02:49:23;100544.31;;;3.99;100.00
41830;BME280;38614;43.472;23.936;2023-04-08T02:52:11;100546.25;;;3.98;100.00
41830;BME280;38614;43.472;23.936;2023-04-08T02:54:59;100552.25;;;4.00;100.00
41830;BME280;38614;43.472;23.936;2023-04-08T02:57:47;100535.84;;;3.87;100.00
41830;BME280;38614;43.472;23.936;2023-04-08T03:00:35;100545.97;;;3.86;100.00
41830;BME280;38614;43.472;23.936;2023-04-08T03:03:25;100551.03;;;3.93;100.00
41830;BME280;38614;43.472;23.936;2023-04-08T03:06:17;100524.91;;;3.73;100.00
41830;BME280;38614;43.472;23.936;2023-04-08T03:09:05;100551.84;;;3.93;100.00
41830;BME280;38614;43.472;23.936;2023-04-08T03:11:53;100542.63;;;3.89;100.00
41830;BME280;38614;43.472;23.936;2023-04-08T03:14:41;100556.88;;;4.00;100.00
41830;BME280;38614;43.472;23.936;2023-04-08T03:17:29;100539.66;;;3.99;100.00
41830;BME280;38614;43.472;23.936;2023-04-08T03:20:20;100544.94;;;4.10;100.00
41830;BME280;38614;43.472;23.936;2023-04-08T03:23:08;100519.00;;;4.07;100.00
41830;BME280;38614;43.472;23.936;2023-04-08T03:25:55;100522.13;;;4.14;100.00
41830;BME280;38614;43.472;23.936;2023-04-08T03:28:43;100536.53;;;4.20;100.00
41830;BME280;38614;43.472;23.936;2023-04-08T03:31:31;100497.47;;;3.92;100.00
41830;BME280;38614;43.472;23.936;2023-04-08T03:34:19;100540.56;;;4.22;100.00
41830;BME280;38614;43.472;23.936;2023-04-08T03:37:07;100520.69;;;4.17;100.00
41830;BME280;38614;43.472;23.936;2023-04-08T03:39:55;100545.31;;;4.31;100.00
41830;BME280;38614;43.472;23.936;2023-04-08T03:42:42;100549.16;;;4.29;100.00
41830;BME280;38614;43.472;23.936;2023-04-08T03:45:30;100521.63;;;4.12;100.00
41830;BME280;38614;43.472;23.936;2023-04-08T03:48:18;100541.44;;;4.32;100.00
41830;BME280;38614;43.472;23.936;2023-04-08T03:51:06;100555.41;;;4.44;100.00
41830;BME280;38614;43.472;23.936;2023-04-08T03:53:53;100539.41;;;4.37;100.00
41830;BME280;38614;43.472;23.936;2023-04-08T03:56:41;100550.66;;;4.36;100.00
41830;BME280;38614;43.472;23.936;2023-04-08T03:59:29;100530.69;;;4.35;100.00
41830;BME280;38614;43.472;23.936;2023-04-08T04:02:17;100539.22;;;4.34;100.00
41830;BME280;38614;43.472;23.936;2023-04-08T04:05:05;100555.00;;;4.37;100.00
41830;BME280;38614;43.472;23.936;2023-04-08T04:07:53;100557.81;;;4.45;100.00
41830;BME280;38614;43.472;23.936;2023-04-08T04:10:41;100561.88;;;4.48;100.00
41830;BME280;38614;43.472;23.936;2023-04-08T04:13:28;100552.63;;;4.57;100.00
41830;BME280;38614;43.472;23.936;2023-04-08T04:16:16;100518.94;;;4.35;100.00
41830;BME280;38614;43.472;23.936;2023-04-08T04:19:04;100541.38;;;4.59;100.00
41830;BME280;38614;43.472;23.936;2023-04-08T04:21:52;100549.09;;;4.57;100.00
41830;BME280;38614;43.472;23.936;2023-04-08T04:24:46;100559.66;;;4.72;100.00
41830;BME280;38614;43.472;23.936;2023-04-08T04:27:37;100556.81;;;4.77;100.00
41830;BME280;38614;43.472;23.936;2023-04-08T04:30:27;100562.09;;;4.74;100.00
41830;BME280;38614;43.472;23.936;2023-04-08T04:33:15;100543.13;;;4.77;100.00
41830;BME280;38614;43.472;23.936;2023-04-08T04:36:03;100547.06;;;4.85;100.00
41830;BME280;38614;43.472;23.936;2023-04-08T04:38:51;100542.25;;;4.91;100.00
41830;BME280;38614;43.472;23.936;2023-04-08T04:41:40;100499.91;;;4.66;100.00
41830;BME280;38614;43.472;23.936;2023-04-08T04:44:28;100548.84;;;4.90;100.00
41830;BME280;38614;43.472;23.936;2023-04-08T04:47:16;100538.28;;;4.97;100.00
41830;BME280;38614;43.472;23.936;2023-04-08T04:50:05;100540.94;;;5.10;100.00
41830;BME280;38614;43.472;23.936;2023-04-08T04:52:53;100500.78;;;4.83;100.00
41830;BME280;38614;43.472;23.936;2023-04-08T04:55:41;100538.13;;;5.24;100.00
41830;BME280;38614;43.472;23.936;2023-04-08T04:58:29;100479.41;;;4.85;100.00
41830;BME280;38614;43.472;23.936;2023-04-08T05:01:19;100518.63;;;5.26;100.00
41830;BME280;38614;43.472;23.936;2023-04-08T05:04:07;100515.41;;;5.24;100.00
41830;BME280;38614;43.472;23.936;2023-04-08T05:06:58;100526.41;;;5.32;100.00
41830;BME280;38614;43.472;23.936;2023-04-08T05:09:46;100503.97;;;5.30;100.00
41830;BME280;38614;43.472;23.936;2023-04-08T05:12:33;100548.75;;;5.57;100.00
41830;BME280;38614;43.472;23.936;2023-04-08T05:15:21;100526.69;;;5.62;100.00
41830;BME280;38614;43.472;23.936;2023-04-08T05:18:09;100529.28;;;5.67;100.00
41830;BME280;38614;43.472;23.936;2023-04-08T05:20:57;100545.56;;;6.03;100.00
41830;BME280;38614;43.472;23.936;2023-04-08T05:23:45;100557.41;;;6.21;100.00
41830;BME280;38614;43.472;23.936;2023-04-08T05:26:33;100550.69;;;6.53;100.00
41830;BME280;38614;43.472;23.936;2023-04-08T05:29:21;100530.06;;;7.37;100.00
41830;BME280;38614;43.472;23.936;2023-04-08T05:32:08;100547.41;;;8.05;100.00
41830;BME280;38614;43.472;23.936;2023-04-08T05:34:56;100537.22;;;8.26;100.00
41830;BME280;38614;43.472;23.936;2023-04-08T05:37:44;100540.78;;;9.10;100.00
41830;BME280;38614;43.472;23.936;2023-04-08T05:40:32;100550.47;;;9.86;100.00
41830;BME280;38614;43.472;23.936;2023-04-08T05:43:19;100559.38;;;9.47;100.00
41830;BME280;38614;43.472;23.936;2023-04-08T05:46:08;100561.69;;;9.57;100.00
41830;BME280;38614;43.472;23.936;2023-04-08T05:48:56;100572.59;;;9.08;100.00
41830;BME280;38614;43.472;23.936;2023-04-08T05:51:45;100556.22;;;8.19;100.00
41830;BME280;38614;43.472;23.936;2023-04-08T05:54:33;100553.38;;;8.99;100.00
41830;BME280;38614;43.472;23.936;2023-04-08T05:57:20;100567.63;;;9.80;100.00
41830;BME280;38614;43.472;23.936;2023-04-08T06:00:09;100558.28;;;9.60;100.00
41830;BME280;38614;43.472;23.936;2023-04-08T06:02:59;100559.47;;;10.08;100.00
41830;BME280;38614;43.472;23.936;2023-04-08T06:05:47;100554.84;;;9.99;100.00
41830;BME280;38614;43.472;23.936;2023-04-08T06:08:35;100546.78;;;10.43;100.00
41830;BME280;38614;43.472;23.936;2023-04-08T06:11:23;100535.19;;;10.01;100.00
41830;BME280;38614;43.472;23.936;2023-04-08T06:14:11;100556.81;;;9.99;100.00
41830;BME280;38614;43.472;23.936;2023-04-08T06:16:59;100559.69;;;10.15;100.00
41830;BME280;38614;43.472;23.936;2023-04-08T06:19:47;100522.75;;;9.70;100.00
41830;BME280;38614;43.472;23.936;2023-04-08T06:22:37;100545.63;;;9.83;100.00
41830;BME280;38614;43.472;23.936;2023-04-08T06:25:25;100526.78;;;10.22;100.00
41830;BME280;38614;43.472;23.936;2023-04-08T06:28:12;100538.66;;;11.03;100.00
41830;BME280;38614;43.472;23.936;2023-04-08T06:31:00;100457.41;;;10.51;100.00
41830;BME280;38614;43.472;23.936;2023-04-08T06:33:48;100555.16;;;11.27;100.00
41830;BME280;38614;43.472;23.936;2023-04-08T06:36:36;100552.63;;;11.82;100.00
41830;BME280;38614;43.472;23.936;2023-04-08T06:39:24;100541.53;;;11.82;100.00
41830;BME280;38614;43.472;23.936;2023-04-08T06:42:11;100548.50;;;12.07;100.00
41830;BME280;38614;43.472;23.936;2023-04-08T06:45:27;100550.88;;;12.24;100.00
41830;BME280;38614;43.472;23.936;2023-04-08T06:48:15;100557.53;;;12.04;100.00
41830;BME280;38614;43.472;23.936;2023-04-08T06:51:03;100512.88;;;12.41;100.00
41830;BME280;38614;43.472;23.936;2023-04-08T06:53:51;100563.72;;;12.48;100.00
41830;BME280;38614;43.472;23.936;2023-04-08T06:56:38;100561.78;;;12.17;100.00
41830;BME280;38614;43.472;23.936;2023-04-08T06:59:26;100572.31;;;12.98;100.00
41830;BME280;38614;43.472;23.936;2023-04-08T07:02:14;100567.03;;;13.74;100.00
41830;BME280;38614;43.472;23.936;2023-04-08T07:05:02;100565.81;;;13.71;100.00
41830;BME280;38614;43.472;23.936;2023-04-08T07:07:50;100578.03;;;12.70;100.00
41830;BME280;38614;43.472;23.936;2023-04-08T07:10:38;100578.22;;;12.96;100.00
41830;BME280;38614;43.472;23.936;2023-04-08T07:13:26;100579.28;;;12.37;100.00
41830;BME280;38614;43.472;23.936;2023-04-08T07:16:14;100558.63;;;11.84;100.00
41830;BME280;38614;43.472;23.936;2023-04-08T07:19:04;100574.78;;;12.13;100.00
41830;BME280;38614;43.472;23.936;2023-04-08T07:21:52;100548.78;;;11.86;100.00
41830;BME280;38614;43.472;23.936;2023-04-08T07:24:39;100575.28;;;12.35;100.00
41830;BME280;38614;43.472;23.936;2023-04-08T07:27:29;100574.91;;;12.36;100.00
41830;BME280;38614;43.472;23.936;2023-04-08T07:30:17;100584.69;;;12.30;100.00
41830;BME280;38614;43.472;23.936;2023-04-08T07:33:05;100578.09;;;12.73;100.00
41830;BME280;38614;43.472;23.936;2023-04-08T07:35:53;100554.34;;;12.92;100.00
41830;BME280;38614;43.472;23.936;2023-04-08T07:38:41;100579.91;;;13.20;100.00
41830;BME280;38614;43.472;23.936;2023-04-08T07:41:29;100547.13;;;13.26;100.00
41830;BME280;38614;43.472;23.936;2023-04-08T07:44:17;100575.69;;;13.49;100.00
41830;BME280;38614;43.472;23.936;2023-04-08T07:47:06;100580.16;;;13.54;100.00
41830;BME280;38614;43.472;23.936;2023-04-08T07:49:54;100591.97;;;12.73;100.00
41830;BME280;38614;43.472;23.936;2023-04-08T07:52:41;100599.66;;;12.80;100.00
41830;BME280;38614;43.472;23.936;2023-04-08T07:55:32;100563.03;;;13.29;100.00
41830;BME280;38614;43.472;23.936;2023-04-08T07:58:21;100589.81;;;13.60;100.00
41830;BME280;38614;43.472;23.936;2023-04-08T08:04:05;100576.81;;;13.06;100.00
41830;BME280;38614;43.472;23.936;2023-04-08T08:06:53;100602.06;;;12.81;100.00
41830;BME280;38614;43.472;23.936;2023-04-08T08:09:41;100589.78;;;12.63;100.00
41830;BME280;38614;43.472;23.936;2023-04-08T08:12:28;100578.84;;;12.70;100.00
41830;BME280;38614;43.472;23.936;2023-04-08T08:15:19;100545.00;;;12.80;100.00
41830;BME280;38614;43.472;23.936;2023-04-08T08:18:07;100614.59;;;13.30;100.00
41830;BME280;38614;43.472;23.936;2023-04-08T08:20:55;100609.97;;;13.18;100.00
41830;BME280;38614;43.472;23.936;2023-04-08T08:23:43;100611.47;;;13.31;100.00
41830;BME280;38614;43.472;23.936;2023-04-08T08:26:30;100612.34;;;13.35;100.00
41830;BME280;38614;43.472;23.936;2023-04-08T08:29:18;100579.09;;;13.00;100.00
41830;BME280;38614;43.472;23.936;2023-04-08T08:32:06;100613.31;;;13.66;100.00
41830;BME280;38614;43.472;23.936;2023-04-08T08:34:54;100616.13;;;13.47;100.00
41830;BME280;38614;43.472;23.936;2023-04-08T08:37:42;100581.22;;;13.26;100.00
41830;BME280;38614;43.472;23.936;2023-04-08T08:40:29;100602.09;;;13.82;100.00
41830;BME280;38614;43.472;23.936;2023-04-08T08:43:17;100600.78;;;13.76;100.00
41830;BME280;38614;43.472;23.936;2023-04-08T08:46:09;100622.97;;;13.53;100.00
41830;BME280;38614;43.472;23.936;2023-04-08T08:49:00;100614.91;;;13.67;100.00
41830;BME280;38614;43.472;23.936;2023-04-08T08:51:49;100604.75;;;13.97;100.00
41830;BME280;38614;43.472;23.936;2023-04-08T08:54:37;100602.22;;;13.89;100.00
41830;BME280;38614;43.472;23.936;2023-04-08T08:57:25;100609.81;;;14.15;100.00
41830;BME280;38614;43.472;23.936;2023-04-08T09:00:14;100600.06;;;13.79;100.00
41830;BME280;38614;43.472;23.936;2023-04-08T09:03:27;100615.63;;;13.41;100.00
41830;BME280;38614;43.472;23.936;2023-04-08T09:06:17;100610.06;;;13.41;100.00
41830;BME280;38614;43.472;23.936;2023-04-08T09:09:07;100611.28;;;13.63;100.00
41830;BME280;38614;43.472;23.936;2023-04-08T09:12:04;100604.59;;;13.45;100.00
41830;BME280;38614;43.472;23.936;2023-04-08T09:15:12;100612.41;;;13.81;100.00
41830;BME280;38614;43.472;23.936;2023-04-08T09:18:00;100600.38;;;13.96;100.00
41830;BME280;38614;43.472;23.936;2023-04-08T09:20:52;100609.06;;;14.18;100.00
41830;BME280;38614;43.472;23.936;2023-04-08T09:23:43;100592.63;;;13.86;100.00
41830;BME280;38614;43.472;23.936;2023-04-08T09:26:31;100615.97;;;14.05;99.86
41830;BME280;38614;43.472;23.936;2023-04-08T09:29:22;100603.81;;;14.13;100.00
41830;BME280;38614;43.472;23.936;2023-04-08T09:32:13;100591.00;;;14.54;99.50
41830;BME280;38614;43.472;23.936;2023-04-08T09:35:00;100614.69;;;15.01;98.84
41830;BME280;38614;43.472;23.936;2023-04-08T09:37:50;100622.09;;;14.90;96.25
41830;BME280;38614;43.472;23.936;2023-04-08T09:40:39;100593.88;;;14.38;94.56
41830;BME280;38614;43.472;23.936;2023-04-08T09:43:28;100608.44;;;14.05;89.82
41830;BME280;38614;43.472;23.936;2023-04-08T09:46:18;100607.94;;;14.45;91.19
41830;BME280;38614;43.472;23.936;2023-04-08T09:49:33;100593.59;;;14.43;92.19
41830;BME280;38614;43.472;23.936;2023-04-08T09:52:28;100606.19;;;14.90;95.58
41830;BME280;38614;43.472;23.936;2023-04-08T09:55:21;100609.91;;;15.01;90.32
41830;BME280;38614;43.472;23.936;2023-04-08T09:58:20;100608.59;;;14.92;93.42
41830;BME280;38614;43.472;23.936;2023-04-08T10:01:13;100598.19;;;15.52;95.43
41830;BME280;38614;43.472;23.936;2023-04-08T10:04:04;100605.72;;;15.52;84.90
41830;BME280;38614;43.472;23.936;2023-04-08T10:06:58;100604.94;;;15.51;87.76
41830;BME280;38614;43.472;23.936;2023-04-08T10:09:50;100614.16;;;15.22;84.58
41830;BME280;38614;43.472;23.936;2023-04-08T10:12:38;100577.50;;;14.56;88.15
41830;BME280;38614;43.472;23.936;2023-04-08T10:15:31;100601.09;;;15.63;91.47
41830;BME280;38614;43.472;23.936;2023-04-08T10:21:32;100597.84;;;15.57;84.08
41830;BME280;38614;43.472;23.936;2023-04-08T10:24:22;100601.00;;;16.41;85.30
41830;BME280;38614;43.472;23.936;2023-04-08T10:27:24;100588.47;;;16.68;83.28
41830;BME280;38614;43.472;23.936;2023-04-08T10:33:22;100583.22;;;16.08;87.57
41830;BME280;38614;43.472;23.936;2023-04-08T10:36:12;100570.00;;;16.53;83.09
41830;BME280;38614;43.472;23.936;2023-04-08T10:39:01;100580.59;;;16.92;81.44
41830;BME280;38614;43.472;23.936;2023-04-08T10:41:49;100582.66;;;17.09;79.87
41830;BME280;38614;43.472;23.936;2023-04-08T10:44:43;100577.84;;;17.02;80.53
41830;BME280;38614;43.472;23.936;2023-04-08T10:47:32;100572.22;;;16.88;78.04
41830;BME280;38614;43.472;23.936;2023-04-08T10:50:20;100572.50;;;16.69;78.80
41830;BME280;38614;43.472;23.936;2023-04-08T10:53:10;100573.56;;;16.50;81.12
41830;BME280;38614;43.472;23.936;2023-04-08T10:56:10;100551.13;;;16.29;77.27
41830;BME280;38614;43.472;23.936;2023-04-08T10:59:06;100557.41;;;16.18;81.14
41830;BME280;38614;43.472;23.936;2023-04-08T11:01:54;100577.91;;;15.92;79.13
41830;BME280;38614;43.472;23.936;2023-04-08T11:04:42;100579.94;;;15.58;77.88
41830;BME280;38614;43.472;23.936;2023-04-08T11:07:31;100534.81;;;15.05;78.65
41830;BME280;38614;43.472;23.936;2023-04-08T11:10:19;100542.06;;;15.50;80.10
41830;BME280;38614;43.472;23.936;2023-04-08T11:13:07;100575.84;;;15.45;79.57
41830;BME280;38614;43.472;23.936;2023-04-08T11:15:59;100559.75;;;15.65;78.30
41830;BME280;38614;43.472;23.936;2023-04-08T11:18:47;100569.25;;;15.60;81.04
41830;BME280;38614;43.472;23.936;2023-04-08T11:21:36;100581.75;;;15.77;78.44
41830;BME280;38614;43.472;23.936;2023-04-08T11:24:24;100504.66;;;15.10;76.42
41830;BME280;38614;43.472;23.936;2023-04-08T11:27:12;100572.19;;;15.75;79.10
41830;BME280;38614;43.472;23.936;2023-04-08T11:30:03;100530.34;;;15.34;78.95
41830;BME280;38614;43.472;23.936;2023-04-08T11:32:52;100536.31;;;15.32;80.42
41830;BME280;38614;43.472;23.936;2023-04-08T11:35:41;100562.34;;;15.51;79.88
41830;BME280;38614;43.472;23.936;2023-04-08T11:38:29;100505.41;;;15.07;77.76
41830;BME280;38614;43.472;23.936;2023-04-08T11:41:17;100552.72;;;15.45;78.38
41830;BME280;38614;43.472;23.936;2023-04-08T11:44:05;100548.84;;;15.53;78.05
41830;BME280;38614;43.472;23.936;2023-04-08T11:46:55;100549.75;;;16.08;80.34
41830;BME280;38614;43.472;23.936;2023-04-08T11:49:44;100551.94;;;16.33;78.21
41830;BME280;38614;43.472;23.936;2023-04-08T11:52:46;100541.69;;;16.47;77.46
41830;BME280;38614;43.472;23.936;2023-04-08T11:55:34;100519.81;;;15.94;77.60
41830;BME280;38614;43.472;23.936;2023-04-08T11:58:22;100543.28;;;16.48;77.42
41830;BME280;38614;43.472;23.936;2023-04-08T12:01:10;100533.97;;;16.27;77.54
41830;BME280;38614;43.472;23.936;2023-04-08T12:03:59;100544.56;;;16.03;78.94
41830;BME280;38614;43.472;23.936;2023-04-08T12:06:48;100534.13;;;15.93;80.24
41830;BME280;38614;43.472;23.936;2023-04-08T12:09:36;100535.88;;;16.12;80.73
41830;BME280;38614;43.472;23.936;2023-04-08T12:12:24;100536.53;;;15.94;79.64
41830;BME280;38614;43.472;23.936;2023-04-08T12:15:12;100527.00;;;15.99;80.93
41830;BME280;38614;43.472;23.936;2023-04-08T12:17:59;100515.03;;;15.95;78.83
41830;BME280;38614;43.472;23.936;2023-04-08T12:20:47;100536.75;;;16.27;79.88
41830;BME280;38614;43.472;23.936;2023-04-08T12:23:35;100521.16;;;16.18;76.86
41830;BME280;38614;43.472;23.936;2023-04-08T12:26:23;100503.56;;;16.07;78.76
41830;BME280;38614;43.472;23.936;2023-04-08T12:29:11;100509.06;;;16.00;76.51
41830;BME280;38614;43.472;23.936;2023-04-08T12:31:58;100516.56;;;15.89;76.63
41830;BME280;38614;43.472;23.936;2023-04-08T12:34:48;100513.81;;;15.92;76.90
41830;BME280;38614;43.472;23.936;2023-04-08T12:37:36;100508.75;;;16.09;75.36
41830;BME280;38614;43.472;23.936;2023-04-08T12:40:24;100504.22;;;16.52;76.05
41830;BME280;38614;43.472;23.936;2023-04-08T12:43:12;100479.94;;;16.52;72.16
41830;BME280;38614;43.472;23.936;2023-04-08T12:46:00;100467.13;;;15.79;72.40
41830;BME280;38614;43.472;23.936;2023-04-08T12:48:48;100488.13;;;15.65;76.17
41830;BME280;38614;43.472;23.936;2023-04-08T12:51:49;100501.16;;;16.02;74.64
41830;BME280;38614;43.472;23.936;2023-04-08T12:54:37;100501.56;;;16.04;75.74
41830;BME280;38614;43.472;23.936;2023-04-08T12:57:25;100466.50;;;16.03;74.51
41830;BME280;38614;43.472;23.936;2023-04-08T13:00:14;100488.22;;;15.76;71.60
41830;BME280;38614;43.472;23.936;2023-04-08T13:03:03;100484.09;;;16.11;72.67
41830;BME280;38614;43.472;23.936;2023-04-08T13:05:51;100452.63;;;15.59;72.78
41830;BME280;38614;43.472;23.936;2023-04-08T13:08:38;100477.72;;;15.62;73.56
41830;BME280;38614;43.472;23.936;2023-04-08T13:11:26;100474.22;;;15.73;73.06
41830;BME280;38614;43.472;23.936;2023-04-08T13:14:14;100466.78;;;15.87;73.04
41830;BME280;38614;43.472;23.936;2023-04-08T13:17:03;100477.16;;;15.90;73.57
41830;BME280;38614;43.472;23.936;2023-04-08T13:19:51;100467.41;;;16.21;68.04
41830;BME280;38614;43.472;23.936;2023-04-08T13:22:38;100441.47;;;16.14;68.74
41830;BME280;38614;43.472;23.936;2023-04-08T13:25:27;100474.25;;;16.35;68.74
41830;BME280;38614;43.472;23.936;2023-04-08T13:28:15;100461.47;;;16.27;68.73
41830;BME280;38614;43.472;23.936;2023-04-08T13:31:03;100439.66;;;15.81;66.97
41830;BME280;38614;43.472;23.936;2023-04-08T13:33:50;100462.59;;;16.18;69.03
41830;BME280;38614;43.472;23.936;2023-04-08T13:36:42;100464.22;;;16.19;70.93
41830;BME280;38614;43.472;23.936;2023-04-08T13:39:29;100457.88;;;16.22;70.64
41830;BME280;38614;43.472;23.936;2023-04-08T13:42:18;100453.78;;;16.09;71.44
41830;BME280;38614;43.472;23.936;2023-04-08T13:45:06;100451.34;;;16.01;71.34
41830;BME280;38614;43.472;23.936;2023-04-08T13:47:54;100453.88;;;16.20;72.27
41830;BME280;38614;43.472;23.936;2023-04-08T13:50:43;100451.00;;;16.09;71.52
41830;BME280;38614;43.472;23.936;2023-04-08T13:53:31;100400.25;;;15.79;72.58
41830;BME280;38614;43.472;23.936;2023-04-08T13:56:18;100441.81;;;16.05;72.66
41830;BME280;38614;43.472;23.936;2023-04-08T13:59:07;100433.91;;;15.56;71.30
41830;BME280;38614;43.472;23.936;2023-04-08T14:01:56;100449.94;;;15.70;72.64
41830;BME280;38614;43.472;23.936;2023-04-08T14:04:44;100432.66;;;15.53;71.34
41830;BME280;38614;43.472;23.936;2023-04-08T14:07:33;100431.94;;;15.60;72.54
41830;BME280;38614;43.472;23.936;2023-04-08T14:10:20;100400.81;;;15.47;72.94
41830;BME280;38614;43.472;23.936;2023-04-08T14:13:08;100427.09;;;15.53;73.50
41830;BME280;38614;43.472;23.936;2023-04-08T14:15:56;100387.59;;;15.37;74.70
41830;BME280;38614;43.472;23.936;2023-04-08T14:18:45;100404.84;;;15.09;75.85
41830;BME280;38614;43.472;23.936;2023-04-08T14:21:33;100444.13;;;14.67;76.91
41830;BME280;38614;43.472;23.936;2023-04-08T14:24:20;100409.97;;;14.36;77.50
41830;BME280;38614;43.472;23.936;2023-04-08T14:27:09;100400.59;;;13.88;78.85
41830;BME280;38614;43.472;23.936;2023-04-08T14:29:57;100436.81;;;13.95;80.09
41830;BME280;38614;43.472;23.936;2023-04-08T14:32:44;100432.44;;;13.94;81.21
41830;BME280;38614;43.472;23.936;2023-04-08T14:35:33;100439.13;;;13.89;81.18
41830;BME280;38614;43.472;23.936;2023-04-08T14:38:20;100403.69;;;13.56;81.90
41830;BME280;38614;43.472;23.936;2023-04-08T14:41:09;100392.13;;;13.51;82.08